sensor_id;sensor_type;location;lat;lon;timestamp;P1;durP1;ratioP1;P2;durP2;ratioP2
20567;SDS011;10442;49.932;11.592;2022-08-19T00:01:56;15.02;;;13.73;;
20567;SDS011;10442;49.932;11.592;2022-08-19T00:04:26;18.58;;;17.08;;
20567;SDS011;10442;49.932;11.592;2022-08-19T00:06:56;16.63;;;15.18;;
20567;SDS011;10442;49.932;11.592;2022-08-19T00:09:25;18.20;;;16.70;;
20567;SDS011;10442;49.932;11.592;2022-08-19T00:11:54;16.05;;;14.70;;
20567;SDS011;10442;49.932;11.592;2022-08-19T00:14:23;17.38;;;15.88;;
20567;SDS011;10442;49.932;11.592;2022-08-19T00:16:52;17.38;;;16.08;;
20567;SDS011;10442;49.932;11.592;2022-08-19T00:19:21;18.05;;;16.65;;
20567;SDS011;10442;49.932;11.592;2022-08-19T00:21:50;18.30;;;16.65;;
20567;SDS011;10442;49.932;11.592;2022-08-19T00:24:18;16.45;;;15.05;;
20567;SDS011;10442;49.932;11.592;2022-08-19T00:26:47;15.10;;;14.00;;
20567;SDS011;10442;49.932;11.592;2022-08-19T00:29:15;17.42;;;15.85;;
20567;SDS011;10442;49.932;11.592;2022-08-19T00:31:44;15.98;;;14.60;;
20567;SDS011;10442;49.932;11.592;2022-08-19T00:34:13;14.88;;;13.77;;
20567;SDS011;10442;49.932;11.592;2022-08-19T00:36:41;15.73;;;14.43;;
20567;SDS011;10442;49.932;11.592;2022-08-19T00:39:10;15.52;;;14.40;;
20567;SDS011;10442;49.932;11.592;2022-08-19T00:41:39;13.65;;;12.65;;
20567;SDS011;10442;49.932;11.592;2022-08-19T00:44:12;15.88;;;14.70;;
20567;SDS011;10442;49.932;11.592;2022-08-19T00:46:44;16.05;;;14.75;;
20567;SDS011;10442;49.932;11.592;2022-08-19T00:49:31;14.55;;;13.45;;
20567;SDS011;10442;49.932;11.592;2022-08-19T00:52:28;15.48;;;14.13;;
20567;SDS011;10442;49.932;11.592;2022-08-19T00:55:01;13.00;;;12.00;;
20567;SDS011;10442;49.932;11.592;2022-08-19T00:57:31;13.77;;;12.73;;
20567;SDS011;10442;49.932;11.592;2022-08-19T01:00:05;14.02;;;12.82;;
20567;SDS011;10442;49.932;11.592;2022-08-19T01:02:37;14.55;;;13.50;;
20567;SDS011;10442;49.932;11.592;2022-08-19T01:05:08;14.23;;;13.13;;
20567;SDS011;10442;49.932;11.592;2022-08-19T01:07:39;14.02;;;12.85;;
20567;SDS011;10442;49.932;11.592;2022-08-19T01:10:09;16.55;;;15.15;;
20567;SDS011;10442;49.932;11.592;2022-08-19T01:12:40;15.35;;;14.13;;
20567;SDS011;10442;49.932;11.592;2022-08-19T01:15:09;13.77;;;12.63;;
20567;SDS011;10442;49.932;11.592;2022-08-19T01:17:38;11.93;;;11.07;;
20567;SDS011;10442;49.932;11.592;2022-08-19T01:20:12;13.02;;;11.93;;
20567;SDS011;10442;49.932;11.592;2022-08-19T01:22:51;15.23;;;14.00;;
20567;SDS011;10442;49.932;11.592;2022-08-19T01:25:22;14.23;;;13.13;;
20567;SDS011;10442;49.932;11.592;2022-08-19T01:27:54;13.55;;;12.55;;
20567;SDS011;10442;49.932;11.592;2022-08-19T01:30:33;12.95;;;12.02;;
20567;SDS011;10442;49.932;11.592;2022-08-19T01:33:02;13.32;;;12.15;;
20567;SDS011;10442;49.932;11.592;2022-08-19T01:35:32;13.60;;;12.52;;
20567;SDS011;10442;49.932;11.592;2022-08-19T01:38:00;12.43;;;11.50;;
20567;SDS011;10442;49.932;11.592;2022-08-19T01:40:30;14.15;;;12.95;;
20567;SDS011;10442;49.932;11.592;2022-08-19T01:43:00;13.02;;;12.02;;
20567;SDS011;10442;49.932;11.592;2022-08-19T01:45:28;14.85;;;13.57;;
20567;SDS011;10442;49.932;11.592;2022-08-19T01:47:58;12.52;;;11.63;;
20567;SDS011;10442;49.932;11.592;2022-08-19T01:50:29;13.65;;;12.38;;
20567;SDS011;10442;49.932;11.592;2022-08-19T01:52:58;14.82;;;13.63;;
20567;SDS011;10442;49.932;11.592;2022-08-19T01:55:33;13.45;;;12.25;;
20567;SDS011;10442;49.932;11.592;2022-08-19T01:58:15;16.67;;;15.38;;
20567;SDS011;10442;49.932;11.592;2022-08-19T02:00:49;15.10;;;13.70;;
20567;SDS011;10442;49.932;11.592;2022-08-19T02:03:17;15.45;;;14.15;;
20567;SDS011;10442;49.932;11.592;2022-08-19T02:05:44;13.98;;;12.68;;
20567;SDS011;10442;49.932;11.592;2022-08-19T02:08:12;14.95;;;13.80;;
20567;SDS011;10442;49.932;11.592;2022-08-19T02:10:41;12.32;;;11.32;;
20567;SDS011;10442;49.932;11.592;2022-08-19T02:13:10;13.88;;;12.77;;
20567;SDS011;10442;49.932;11.592;2022-08-19T02:15:39;14.35;;;13.15;;
20567;SDS011;10442;49.932;11.592;2022-08-19T02:18:07;15.20;;;13.75;;
20567;SDS011;10442;49.932;11.592;2022-08-19T02:20:36;13.45;;;12.45;;
20567;SDS011;10442;49.932;11.592;2022-08-19T02:23:05;14.95;;;13.80;;
20567;SDS011;10442;49.932;11.592;2022-08-19T02:25:45;13.68;;;12.48;;
20567;SDS011;10442;49.932;11.592;2022-08-19T02:28:14;14.13;;;12.90;;
20567;SDS011;10442;49.932;11.592;2022-08-19T02:30:45;12.70;;;11.73;;
20567;SDS011;10442;49.932;11.592;2022-08-19T02:33:15;13.27;;;12.30;;
20567;SDS011;10442;49.932;11.592;2022-08-19T02:35:44;15.27;;;13.80;;
20567;SDS011;10442;49.932;11.592;2022-08-19T02:38:13;15.48;;;14.13;;
20567;SDS011;10442;49.932;11.592;2022-08-19T02:41:00;17.20;;;15.93;;
20567;SDS011;10442;49.932;11.592;2022-08-19T02:43:29;15.20;;;14.07;;
20567;SDS011;10442;49.932;11.592;2022-08-19T02:46:00;15.20;;;14.00;;
20567;SDS011;10442;49.932;11.592;2022-08-19T02:48:29;15.27;;;14.07;;
20567;SDS011;10442;49.932;11.592;2022-08-19T02:50:59;14.07;;;13.00;;
20567;SDS011;10442;49.932;11.592;2022-08-19T02:53:27;14.18;;;13.07;;
20567;SDS011;10442;49.932;11.592;2022-08-19T02:55:55;14.80;;;13.63;;
20567;SDS011;10442;49.932;11.592;2022-08-19T02:58:23;13.85;;;12.85;;
20567;SDS011;10442;49.932;11.592;2022-08-19T03:00:52;14.32;;;13.32;;
20567;SDS011;10442;49.932;11.592;2022-08-19T03:03:21;14.77;;;13.43;;
20567;SDS011;10442;49.932;11.592;2022-08-19T03:05:50;14.65;;;13.55;;
20567;SDS011;10442;49.932;11.592;2022-08-19T03:08:23;15.00;;;13.65;;
20567;SDS011;10442;49.932;11.592;2022-08-19T03:10:51;14.00;;;12.85;;
20567;SDS011;10442;49.932;11.592;2022-08-19T03:13:20;14.95;;;13.60;;
20567;SDS011;10442;49.932;11.592;2022-08-19T03:15:48;14.85;;;13.65;;
20567;SDS011;10442;49.932;11.592;2022-08-19T03:18:16;16.08;;;14.82;;
20567;SDS011;10442;49.932;11.592;2022-08-19T03:20:45;15.18;;;13.57;;
20567;SDS011;10442;49.932;11.592;2022-08-19T03:23:15;14.38;;;13.27;;
20567;SDS011;10442;49.932;11.592;2022-08-19T03:25:45;17.20;;;15.70;;
20567;SDS011;10442;49.932;11.592;2022-08-19T03:28:34;17.85;;;16.27;;
20567;SDS011;10442;49.932;11.592;2022-08-19T03:31:03;15.20;;;14.05;;
20567;SDS011;10442;49.932;11.592;2022-08-19T03:33:53;15.45;;;14.15;;
20567;SDS011;10442;49.932;11.592;2022-08-19T03:36:22;15.75;;;14.45;;
20567;SDS011;10442;49.932;11.592;2022-08-19T03:38:53;13.50;;;12.50;;
20567;SDS011;10442;49.932;11.592;2022-08-19T03:41:27;13.52;;;12.60;;
20567;SDS011;10442;49.932;11.592;2022-08-19T03:44:16;13.27;;;12.20;;
20567;SDS011;10442;49.932;11.592;2022-08-19T03:46:48;14.95;;;13.55;;
20567;SDS011;10442;49.932;11.592;2022-08-19T03:49:18;14.90;;;13.52;;
20567;SDS011;10442;49.932;11.592;2022-08-19T03:51:53;14.77;;;13.50;;
20567;SDS011;10442;49.932;11.592;2022-08-19T03:54:22;14.20;;;13.18;;
20567;SDS011;10442;49.932;11.592;2022-08-19T03:56:52;13.27;;;12.18;;
20567;SDS011;10442;49.932;11.592;2022-08-19T03:59:25;13.88;;;12.68;;
20567;SDS011;10442;49.932;11.592;2022-08-19T04:01:55;12.07;;;10.95;;
20567;SDS011;10442;49.932;11.592;2022-08-19T04:04:24;14.30;;;13.15;;
20567;SDS011;10442;49.932;11.592;2022-08-19T04:06:55;14.70;;;13.63;;
20567;SDS011;10442;49.932;11.592;2022-08-19T04:09:24;15.25;;;14.13;;
20567;SDS011;10442;49.932;11.592;2022-08-19T04:11:53;14.48;;;13.35;;
20567;SDS011;10442;49.932;11.592;2022-08-19T04:14:23;13.52;;;12.50;;
20567;SDS011;10442;49.932;11.592;2022-08-19T04:16:57;12.23;;;11.27;;
20567;SDS011;10442;49.932;11.592;2022-08-19T04:19:26;13.20;;;12.30;;
20567;SDS011;10442;49.932;11.592;2022-08-19T04:21:56;13.07;;;12.15;;
20567;SDS011;10442;49.932;11.592;2022-08-19T04:24:24;12.90;;;11.90;;
20567;SDS011;10442;49.932;11.592;2022-08-19T04:26:52;11.95;;;10.85;;
20567;SDS011;10442;49.932;11.592;2022-08-19T04:29:22;12.65;;;11.63;;
20567;SDS011;10442;49.932;11.592;2022-08-19T04:31:53;13.15;;;12.20;;
20567;SDS011;10442;49.932;11.592;2022-08-19T04:34:22;14.43;;;13.10;;
20567;SDS011;10442;49.932;11.592;2022-08-19T04:36:53;13.23;;;12.23;;
20567;SDS011;10442;49.932;11.592;2022-08-19T04:39:23;15.00;;;13.68;;
20567;SDS011;10442;49.932;11.592;2022-08-19T04:42:16;16.10;;;14.90;;
20567;SDS011;10442;49.932;11.592;2022-08-19T04:45:07;16.35;;;14.93;;
20567;SDS011;10442;49.932;11.592;2022-08-19T04:47:39;15.18;;;13.80;;
20567;SDS011;10442;49.932;11.592;2022-08-19T04:50:27;15.07;;;13.98;;
20567;SDS011;10442;49.932;11.592;2022-08-19T04:52:54;15.05;;;13.73;;
20567;SDS011;10442;49.932;11.592;2022-08-19T04:55:22;15.82;;;14.60;;
20567;SDS011;10442;49.932;11.592;2022-08-19T04:57:53;14.43;;;13.13;;
20567;SDS011;10442;49.932;11.592;2022-08-19T05:00:21;14.40;;;13.40;;
20567;SDS011;10442;49.932;11.592;2022-08-19T05:02:49;16.35;;;15.15;;
20567;SDS011;10442;49.932;11.592;2022-08-19T05:05:17;15.50;;;14.18;;
20567;SDS011;10442;49.932;11.592;2022-08-19T05:07:44;15.38;;;14.18;;
20567;SDS011;10442;49.932;11.592;2022-08-19T05:10:13;15.35;;;14.25;;
20567;SDS011;10442;49.932;11.592;2022-08-19T05:12:40;14.98;;;13.70;;
20567;SDS011;10442;49.932;11.592;2022-08-19T05:15:08;13.63;;;12.52;;
20567;SDS011;10442;49.932;11.592;2022-08-19T05:17:36;12.50;;;11.52;;
20567;SDS011;10442;49.932;11.592;2022-08-19T05:20:06;12.25;;;11.32;;
20567;SDS011;10442;49.932;11.592;2022-08-19T05:22:53;14.18;;;12.88;;
20567;SDS011;10442;49.932;11.592;2022-08-19T05:25:21;14.50;;;13.25;;
20567;SDS011;10442;49.932;11.592;2022-08-19T05:27:49;15.77;;;14.10;;
20567;SDS011;10442;49.932;11.592;2022-08-19T05:30:17;15.68;;;14.38;;
20567;SDS011;10442;49.932;11.592;2022-08-19T05:33:04;15.13;;;13.90;;
20567;SDS011;10442;49.932;11.592;2022-08-19T05:35:33;14.68;;;13.63;;
20567;SDS011;10442;49.932;11.592;2022-08-19T05:38:00;15.15;;;13.95;;
20567;SDS011;10442;49.932;11.592;2022-08-19T05:40:28;15.75;;;14.55;;
20567;SDS011;10442;49.932;11.592;2022-08-19T05:42:56;15.00;;;13.82;;
20567;SDS011;10442;49.932;11.592;2022-08-19T05:45:23;14.73;;;13.43;;
20567;SDS011;10442;49.932;11.592;2022-08-19T05:47:51;17.00;;;15.60;;
20567;SDS011;10442;49.932;11.592;2022-08-19T05:50:19;17.65;;;16.10;;
20567;SDS011;10442;49.932;11.592;2022-08-19T05:52:47;18.65;;;16.83;;
20567;SDS011;10442;49.932;11.592;2022-08-19T05:55:20;17.38;;;15.82;;
20567;SDS011;10442;49.932;11.592;2022-08-19T05:57:49;17.45;;;15.93;;
20567;SDS011;10442;49.932;11.592;2022-08-19T06:00:16;16.23;;;14.93;;
20567;SDS011;10442;49.932;11.592;2022-08-19T06:02:50;15.45;;;14.35;;
20567;SDS011;10442;49.932;11.592;2022-08-19T06:05:18;13.50;;;12.50;;
20567;SDS011;10442;49.932;11.592;2022-08-19T06:07:47;15.02;;;13.82;;
20567;SDS011;10442;49.932;11.592;2022-08-19T06:10:14;17.27;;;15.88;;
20567;SDS011;10442;49.932;11.592;2022-08-19T06:12:42;14.15;;;12.93;;
20567;SDS011;10442;49.932;11.592;2022-08-19T06:15:11;14.35;;;13.05;;
20567;SDS011;10442;49.932;11.592;2022-08-19T06:17:40;15.70;;;14.50;;
20567;SDS011;10442;49.932;11.592;2022-08-19T06:20:12;14.25;;;13.15;;
20567;SDS011;10442;49.932;11.592;2022-08-19T06:22:43;15.35;;;14.07;;
20567;SDS011;10442;49.932;11.592;2022-08-19T06:25:13;16.73;;;15.40;;
20567;SDS011;10442;49.932;11.592;2022-08-19T06:27:42;16.45;;;15.20;;
20567;SDS011;10442;49.932;11.592;2022-08-19T06:30:30;15.75;;;14.45;;
20567;SDS011;10442;49.932;11.592;2022-08-19T06:32:58;13.35;;;12.43;;
20567;SDS011;10442;49.932;11.592;2022-08-19T06:35:26;15.00;;;13.70;;
20567;SDS011;10442;49.932;11.592;2022-08-19T06:37:53;18.20;;;16.67;;
20567;SDS011;10442;49.932;11.592;2022-08-19T06:40:21;15.23;;;14.02;;
20567;SDS011;10442;49.932;11.592;2022-08-19T06:42:49;19.02;;;17.13;;
20567;SDS011;10442;49.932;11.592;2022-08-19T06:45:22;17.23;;;15.82;;
20567;SDS011;10442;49.932;11.592;2022-08-19T06:47:51;15.98;;;14.77;;
20567;SDS011;10442;49.932;11.592;2022-08-19T06:50:21;15.63;;;14.38;;
20567;SDS011;10442;49.932;11.592;2022-08-19T06:52:52;17.55;;;16.05;;
20567;SDS011;10442;49.932;11.592;2022-08-19T06:55:21;17.70;;;16.30;;
20567;SDS011;10442;49.932;11.592;2022-08-19T06:57:50;16.80;;;15.40;;
20567;SDS011;10442;49.932;11.592;2022-08-19T07:00:20;19.05;;;17.33;;
20567;SDS011;10442;49.932;11.592;2022-08-19T07:02:47;16.90;;;15.57;;
20567;SDS011;10442;49.932;11.592;2022-08-19T07:05:25;18.45;;;16.98;;
20567;SDS011;10442;49.932;11.592;2022-08-19T07:07:52;17.25;;;15.85;;
20567;SDS011;10442;49.932;11.592;2022-08-19T07:10:24;18.02;;;16.48;;
20567;SDS011;10442;49.932;11.592;2022-08-19T07:12:52;16.42;;;15.13;;
20567;SDS011;10442;49.932;11.592;2022-08-19T07:15:20;18.40;;;16.70;;
20567;SDS011;10442;49.932;11.592;2022-08-19T07:17:48;18.92;;;17.20;;
20567;SDS011;10442;49.932;11.592;2022-08-19T07:20:18;17.08;;;15.40;;
20567;SDS011;10442;49.932;11.592;2022-08-19T07:22:46;18.33;;;16.73;;
20567;SDS011;10442;49.932;11.592;2022-08-19T07:25:16;16.65;;;15.15;;
20567;SDS011;10442;49.932;11.592;2022-08-19T07:27:45;19.05;;;17.15;;
20567;SDS011;10442;49.932;11.592;2022-08-19T07:30:20;16.42;;;14.93;;
20567;SDS011;10442;49.932;11.592;2022-08-19T07:32:52;17.75;;;16.15;;
20567;SDS011;10442;49.932;11.592;2022-08-19T07:35:19;16.48;;;15.25;;
20567;SDS011;10442;49.932;11.592;2022-08-19T07:37:47;17.13;;;15.68;;
20567;SDS011;10442;49.932;11.592;2022-08-19T07:40:15;18.67;;;16.98;;
20567;SDS011;10442;49.932;11.592;2022-08-19T07:42:43;19.52;;;17.83;;
20567;SDS011;10442;49.932;11.592;2022-08-19T07:45:11;18.17;;;16.60;;
20567;SDS011;10442;49.932;11.592;2022-08-19T07:47:39;15.68;;;14.38;;
20567;SDS011;10442;49.932;11.592;2022-08-19T07:50:17;15.48;;;14.18;;
20567;SDS011;10442;49.932;11.592;2022-08-19T07:52:47;16.42;;;15.02;;
20567;SDS011;10442;49.932;11.592;2022-08-19T07:55:18;15.32;;;14.13;;
20567;SDS011;10442;49.932;11.592;2022-08-19T07:58:09;14.98;;;13.70;;
20567;SDS011;10442;49.932;11.592;2022-08-19T08:00:38;17.02;;;15.43;;
20567;SDS011;10442;49.932;11.592;2022-08-19T08:03:07;16.35;;;15.10;;
20567;SDS011;10442;49.932;11.592;2022-08-19T08:05:35;16.10;;;14.75;;
20567;SDS011;10442;49.932;11.592;2022-08-19T08:08:21;19.20;;;17.23;;
20567;SDS011;10442;49.932;11.592;2022-08-19T08:11:11;19.02;;;17.10;;
20567;SDS011;10442;49.932;11.592;2022-08-19T08:13:41;18.13;;;16.63;;
20567;SDS011;10442;49.932;11.592;2022-08-19T08:16:09;15.50;;;14.18;;
20567;SDS011;10442;49.932;11.592;2022-08-19T08:18:40;21.45;;;19.52;;
20567;SDS011;10442;49.932;11.592;2022-08-19T08:21:16;16.58;;;15.27;;
20567;SDS011;10442;49.932;11.592;2022-08-19T08:23:44;18.42;;;16.83;;
20567;SDS011;10442;49.932;11.592;2022-08-19T08:26:11;16.48;;;14.95;;
20567;SDS011;10442;49.932;11.592;2022-08-19T08:28:42;15.73;;;14.63;;
20567;SDS011;10442;49.932;11.592;2022-08-19T08:31:15;16.80;;;15.35;;
20567;SDS011;10442;49.932;11.592;2022-08-19T08:33:43;16.67;;;15.10;;
20567;SDS011;10442;49.932;11.592;2022-08-19T08:36:11;15.70;;;14.40;;
20567;SDS011;10442;49.932;11.592;2022-08-19T08:38:42;15.95;;;14.65;;
20567;SDS011;10442;49.932;11.592;2022-08-19T08:41:18;17.55;;;16.17;;
20567;SDS011;10442;49.932;11.592;2022-08-19T08:43:58;16.90;;;15.55;;
20567;SDS011;10442;49.932;11.592;2022-08-19T08:46:29;29.60;;;27.02;;
20567;SDS011;10442;49.932;11.592;2022-08-19T08:51:52;13.68;;;12.48;;
20567;SDS011;10442;49.932;11.592;2022-08-19T08:54:30;11.63;;;10.82;;
20567;SDS011;10442;49.932;11.592;2022-08-19T08:57:03;15.32;;;12.60;;
20567;SDS011;10442;49.932;11.592;2022-08-19T08:59:35;11.65;;;10.75;;
20567;SDS011;10442;49.932;11.592;2022-08-19T09:02:06;13.38;;;12.27;;
20567;SDS011;10442;49.932;11.592;2022-08-19T09:04:35;13.75;;;12.52;;
20567;SDS011;10442;49.932;11.592;2022-08-19T09:07:25;12.63;;;11.63;;
20567;SDS011;10442;49.932;11.592;2022-08-19T09:10:19;11.75;;;10.88;;
20567;SDS011;10442;49.932;11.592;2022-08-19T09:21:06;14.07;;;12.80;;
20567;SDS011;10442;49.932;11.592;2022-08-19T09:23:36;11.65;;;10.70;;
20567;SDS011;10442;49.932;11.592;2022-08-19T09:26:08;12.80;;;11.80;;
20567;SDS011;10442;49.932;11.592;2022-08-19T09:28:43;13.27;;;12.27;;
20567;SDS011;10442;49.932;11.592;2022-08-19T09:31:16;13.90;;;12.70;;
20567;SDS011;10442;49.932;11.592;2022-08-19T09:33:46;13.38;;;12.27;;
20567;SDS011;10442;49.932;11.592;2022-08-19T09:36:19;16.85;;;15.45;;
20567;SDS011;10442;49.932;11.592;2022-08-19T09:39:02;16.05;;;14.68;;
20567;SDS011;10442;49.932;11.592;2022-08-19T09:41:42;15.27;;;13.98;;
20567;SDS011;10442;49.932;11.592;2022-08-19T09:44:15;14.38;;;13.10;;
20567;SDS011;10442;49.932;11.592;2022-08-19T09:46:44;14.88;;;13.50;;
20567;SDS011;10442;49.932;11.592;2022-08-19T09:49:15;13.82;;;12.70;;
20567;SDS011;10442;49.932;11.592;2022-08-19T09:51:45;12.30;;;11.35;;
20567;SDS011;10442;49.932;11.592;2022-08-19T09:54:17;15.23;;;13.93;;
20567;SDS011;10442;49.932;11.592;2022-08-19T09:56:51;16.75;;;15.18;;
20567;SDS011;10442;49.932;11.592;2022-08-19T09:59:20;17.63;;;15.98;;
20567;SDS011;10442;49.932;11.592;2022-08-19T10:01:48;17.70;;;16.30;;
20567;SDS011;10442;49.932;11.592;2022-08-19T10:04:15;31.60;;;28.83;;
20567;SDS011;10442;49.932;11.592;2022-08-19T10:06:48;26.20;;;23.63;;
20567;SDS011;10442;49.932;11.592;2022-08-19T10:09:19;19.10;;;17.45;;
20567;SDS011;10442;49.932;11.592;2022-08-19T10:12:01;17.42;;;15.73;;
20567;SDS011;10442;49.932;11.592;2022-08-19T10:14:32;16.73;;;15.32;;
20567;SDS011;10442;49.932;11.592;2022-08-19T10:17:00;17.42;;;15.82;;
20567;SDS011;10442;49.932;11.592;2022-08-19T10:19:45;16.40;;;14.82;;
20567;SDS011;10442;49.932;11.592;2022-08-19T10:22:21;17.30;;;15.70;;
20567;SDS011;10442;49.932;11.592;2022-08-19T10:24:51;17.10;;;15.55;;
20567;SDS011;10442;49.932;11.592;2022-08-19T10:27:19;18.83;;;16.95;;
20567;SDS011;10442;49.932;11.592;2022-08-19T10:29:47;17.67;;;16.10;;
20567;SDS011;10442;49.932;11.592;2022-08-19T10:32:15;17.08;;;15.52;;
20567;SDS011;10442;49.932;11.592;2022-08-19T10:34:42;16.40;;;15.02;;
20567;SDS011;10442;49.932;11.592;2022-08-19T10:37:15;16.20;;;14.70;;
20567;SDS011;10442;49.932;11.592;2022-08-19T10:39:50;15.80;;;14.43;;
20567;SDS011;10442;49.932;11.592;2022-08-19T10:42:18;16.90;;;15.40;;
20567;SDS011;10442;49.932;11.592;2022-08-19T10:44:48;14.95;;;13.65;;
20567;SDS011;10442;49.932;11.592;2022-08-19T10:47:18;15.93;;;14.63;;
20567;SDS011;10442;49.932;11.592;2022-08-19T10:49:52;15.80;;;14.40;;
20567;SDS011;10442;49.932;11.592;2022-08-19T10:52:40;15.48;;;14.07;;
20567;SDS011;10442;49.932;11.592;2022-08-19T10:55:21;15.82;;;14.45;;
20567;SDS011;10442;49.932;11.592;2022-08-19T10:58:27;15.65;;;14.02;;
20567;SDS011;10442;49.932;11.592;2022-08-19T11:00:55;12.30;;;11.38;;
20567;SDS011;10442;49.932;11.592;2022-08-19T11:03:24;14.95;;;13.65;;
20567;SDS011;10442;49.932;11.592;2022-08-19T11:06:05;15.13;;;13.93;;
20567;SDS011;10442;49.932;11.592;2022-08-19T11:08:35;15.30;;;14.00;;
20567;SDS011;10442;49.932;11.592;2022-08-19T11:11:05;14.50;;;13.20;;
20567;SDS011;10442;49.932;11.592;2022-08-19T11:13:35;18.10;;;12.60;;
20567;SDS011;10442;49.932;11.592;2022-08-19T11:16:07;14.02;;;12.82;;
20567;SDS011;10442;49.932;11.592;2022-08-19T11:18:38;13.75;;;12.65;;
20567;SDS011;10442;49.932;11.592;2022-08-19T11:21:18;13.65;;;12.45;;
20567;SDS011;10442;49.932;11.592;2022-08-19T11:23:51;14.90;;;13.73;;
20567;SDS011;10442;49.932;11.592;2022-08-19T11:26:21;14.85;;;13.57;;
20567;SDS011;10442;49.932;11.592;2022-08-19T11:28:50;11.15;;;10.35;;
20567;SDS011;10442;49.932;11.592;2022-08-19T11:31:25;11.65;;;10.55;;
20567;SDS011;10442;49.932;11.592;2022-08-19T11:33:56;10.73;;;9.85;;
20567;SDS011;10442;49.932;11.592;2022-08-19T11:36:24;13.65;;;12.48;;
20567;SDS011;10442;49.932;11.592;2022-08-19T11:38:52;10.95;;;10.15;;
20567;SDS011;10442;49.932;11.592;2022-08-19T11:41:21;10.93;;;10.00;;
20567;SDS011;10442;49.932;11.592;2022-08-19T11:43:50;21.38;;;19.33;;
20567;SDS011;10442;49.932;11.592;2022-08-19T11:46:21;18.60;;;11.52;;
20567;SDS011;10442;49.932;11.592;2022-08-19T11:48:51;10.90;;;9.90;;
20567;SDS011;10442;49.932;11.592;2022-08-19T11:51:20;8.70;;;8.10;;
20567;SDS011;10442;49.932;11.592;2022-08-19T11:53:49;8.40;;;7.70;;
20567;SDS011;10442;49.932;11.592;2022-08-19T11:56:18;7.30;;;6.80;;
20567;SDS011;10442;49.932;11.592;2022-08-19T11:58:46;7.07;;;6.60;;
20567;SDS011;10442;49.932;11.592;2022-08-19T12:01:16;9.25;;;8.55;;
20567;SDS011;10442;49.932;11.592;2022-08-19T12:03:46;7.38;;;6.78;;
20567;SDS011;10442;49.932;11.592;2022-08-19T12:06:16;6.90;;;6.40;;
20567;SDS011;10442;49.932;11.592;2022-08-19T12:08:55;6.57;;;6.05;;
20567;SDS011;10442;49.932;11.592;2022-08-19T12:11:24;6.32;;;5.88;;
20567;SDS011;10442;49.932;11.592;2022-08-19T12:13:52;6.70;;;6.18;;
20567;SDS011;10442;49.932;11.592;2022-08-19T12:16:22;6.93;;;6.38;;
20567;SDS011;10442;49.932;11.592;2022-08-19T12:18:53;8.85;;;8.15;;
20567;SDS011;10442;49.932;11.592;2022-08-19T12:21:25;10.52;;;9.63;;
20567;SDS011;10442;49.932;11.592;2022-08-19T12:23:56;9.70;;;8.90;;
20567;SDS011;10442;49.932;11.592;2022-08-19T12:26:26;11.35;;;10.35;;
20567;SDS011;10442;49.932;11.592;2022-08-19T12:28:54;9.82;;;9.05;;
20567;SDS011;10442;49.932;11.592;2022-08-19T12:31:22;9.65;;;8.93;;
20567;SDS011;10442;49.932;11.592;2022-08-19T12:33:50;9.38;;;8.57;;
20567;SDS011;10442;49.932;11.592;2022-08-19T12:36:19;8.10;;;7.30;;
20567;SDS011;10442;49.932;11.592;2022-08-19T12:38:47;8.82;;;8.13;;
20567;SDS011;10442;49.932;11.592;2022-08-19T12:41:15;10.48;;;9.65;;
20567;SDS011;10442;49.932;11.592;2022-08-19T12:43:45;9.52;;;8.73;;
20567;SDS011;10442;49.932;11.592;2022-08-19T12:46:12;8.50;;;7.80;;
20567;SDS011;10442;49.932;11.592;2022-08-19T12:48:42;9.00;;;8.13;;
20567;SDS011;10442;49.932;11.592;2022-08-19T12:51:13;8.82;;;8.15;;
20567;SDS011;10442;49.932;11.592;2022-08-19T12:53:43;8.27;;;7.65;;
20567;SDS011;10442;49.932;11.592;2022-08-19T12:56:11;8.32;;;7.68;;
20567;SDS011;10442;49.932;11.592;2022-08-19T12:58:41;8.88;;;8.13;;
20567;SDS011;10442;49.932;11.592;2022-08-19T13:01:17;9.00;;;7.63;;
20567;SDS011;10442;49.932;11.592;2022-08-19T13:03:49;10.30;;;9.30;;
20567;SDS011;10442;49.932;11.592;2022-08-19T13:06:19;39.50;;;20.08;;
20567;SDS011;10442;49.932;11.592;2022-08-19T13:08:47;8.55;;;7.85;;
20567;SDS011;10442;49.932;11.592;2022-08-19T13:11:15;7.18;;;6.68;;
20567;SDS011;10442;49.932;11.592;2022-08-19T13:13:47;7.90;;;7.30;;
20567;SDS011;10442;49.932;11.592;2022-08-19T13:16:17;7.63;;;6.90;;
20567;SDS011;10442;49.932;11.592;2022-08-19T13:18:47;7.72;;;7.22;;
20567;SDS011;10442;49.932;11.592;2022-08-19T13:21:16;8.82;;;8.13;;
20567;SDS011;10442;49.932;11.592;2022-08-19T13:23:46;7.57;;;6.97;;
20567;SDS011;10442;49.932;11.592;2022-08-19T13:26:15;6.97;;;6.43;;
20567;SDS011;10442;49.932;11.592;2022-08-19T13:28:43;8.38;;;7.68;;
20567;SDS011;10442;49.932;11.592;2022-08-19T13:31:31;7.75;;;6.82;;
20567;SDS011;10442;49.932;11.592;2022-08-19T13:34:25;5.95;;;5.55;;
20567;SDS011;10442;49.932;11.592;2022-08-19T13:37:02;7.43;;;6.82;;
20567;SDS011;10442;49.932;11.592;2022-08-19T13:39:31;7.22;;;6.72;;
20567;SDS011;10442;49.932;11.592;2022-08-19T13:42:00;6.97;;;6.38;;
20567;SDS011;10442;49.932;11.592;2022-08-19T13:44:28;6.88;;;6.28;;
20567;SDS011;10442;49.932;11.592;2022-08-19T13:47:00;6.50;;;6.00;;
20567;SDS011;10442;49.932;11.592;2022-08-19T13:49:33;5.93;;;5.53;;
20567;SDS011;10442;49.932;11.592;2022-08-19T13:52:03;6.10;;;5.70;;
20567;SDS011;10442;49.932;11.592;2022-08-19T13:54:32;6.00;;;5.60;;
20567;SDS011;10442;49.932;11.592;2022-08-19T13:57:00;6.10;;;5.70;;
20567;SDS011;10442;49.932;11.592;2022-08-19T13:59:27;6.72;;;6.32;;
20567;SDS011;10442;49.932;11.592;2022-08-19T14:01:57;9.43;;;6.57;;
20567;SDS011;10442;49.932;11.592;2022-08-19T14:04:26;6.38;;;5.88;;
20567;SDS011;10442;49.932;11.592;2022-08-19T14:06:53;6.30;;;5.80;;
20567;SDS011;10442;49.932;11.592;2022-08-19T14:09:21;4.57;;;4.28;;
20567;SDS011;10442;49.932;11.592;2022-08-19T14:11:49;5.00;;;4.70;;
20567;SDS011;10442;49.932;11.592;2022-08-19T14:14:17;5.53;;;5.22;;
20567;SDS011;10442;49.932;11.592;2022-08-19T14:16:45;4.43;;;4.13;;
20567;SDS011;10442;49.932;11.592;2022-08-19T14:19:12;5.80;;;4.65;;
20567;SDS011;10442;49.932;11.592;2022-08-19T14:21:40;4.55;;;4.25;;
20567;SDS011;10442;49.932;11.592;2022-08-19T14:24:08;4.35;;;4.05;;
20567;SDS011;10442;49.932;11.592;2022-08-19T14:26:36;5.07;;;4.10;;
20567;SDS011;10442;49.932;11.592;2022-08-19T14:29:04;5.10;;;4.70;;
20567;SDS011;10442;49.932;11.592;2022-08-19T14:31:31;5.78;;;5.32;;
20567;SDS011;10442;49.932;11.592;2022-08-19T14:33:59;5.32;;;4.60;;
20567;SDS011;10442;49.932;11.592;2022-08-19T14:36:27;4.50;;;4.20;;
20567;SDS011;10442;49.932;11.592;2022-08-19T14:38:54;5.65;;;5.15;;
20567;SDS011;10442;49.932;11.592;2022-08-19T14:41:22;5.40;;;5.00;;
20567;SDS011;10442;49.932;11.592;2022-08-19T14:43:50;5.03;;;4.72;;
20567;SDS011;10442;49.932;11.592;2022-08-19T14:46:20;5.10;;;4.80;;
20567;SDS011;10442;49.932;11.592;2022-08-19T14:48:49;6.78;;;5.28;;